Airfield :
LOGIN :

Register | Disclaimer

   EN    FR    IT 

 










Legend :    VFR   Marginal VFR   IFR   Intensive IFR   Very Intensive IFR
Visi :
Ceiling :
>= 8 km
>= 3000ft
5 to 8 km
1000 to 3000 ft
1500m to 5 km
500 to 1000 ft
800 to 1500m
200 to 500 ft
< 800m
< 200 ft
Symbols :   Thunderstorms  Fog  Heavy snow  Heavy precipitations  Wind > 20 kt
SIGMETs :     Misc.  Thunderstorms  Icing  Turbulence  Mountain Waves  Volcanic Ashes






- Airport Elevation : 157 ft
- IATA code : LIL


LFQQ - Lille Lesquin

CURRENT METAR :
  • 231530Z AUTO 22006KT 180V250 9999 FEW043/// BKN058/// BKN070/// ///CB 19/11 Q1015 TEMPO 4000 TSRA

EXPIRED METARs :
  • 231500Z AUTO 24004KT 190V280 9999 SCT039 BKN047 BKN056 19/11 Q1015 TEMPO 4000 TSRA BKN030CB
  • 231430Z AUTO 23007KT 9999 FEW040 OVC082 19/11 Q1015 TEMPO 4000 TSRA BKN030CB
  • 231400Z AUTO 23008KT 9999 SCT036 SCT045 BKN070 19/11 Q1015 TEMPO 4000 TSRA BKN030CB
  • 231330Z AUTO 25007KT 200V300 9999 FEW037 BKN080 OVC100 20/12 Q1015 TEMPO 4000 TSRA BKN030CB
  • 231300Z AUTO 24009KT 9999 FEW028 BKN078 BKN098 18/12 Q1015 TEMPO 4000 TSRA BKN030CB
  • 231230Z AUTO 22011KT 170V240 9999 SCT025/// SCT036/// BKN096/// //////CB 19/12 Q1015 TEMPO 4000 TSRA
  • 231200Z AUTO 21007KT 180V240 9999 SCT022/// BKN038/// BKN060/// ///TCU 18/12 Q1015 TEMPO 4000 TSRA BKN030CB
  • 231130Z AUTO 23009KT 190V250 9999 FEW017/// SCT035/// BKN050/// ///CB 16/12 Q1015 TEMPO 4000 TSRA
  • 231100Z AUTO 20010KT 170V240 9999 BKN016/// BKN023/// BKN036/// ///CB 17/13 Q1016 TEMPO 4000 SHRA
  • 231030Z AUTO 19011KT 160V230 9999 BKN017/// BKN022/// BKN027/// ///TCU 16/13 Q1016 TEMPO 4000 SHRA SCT030CB

TAF TAF LFQQ
Valid from the 23 at 12:00 until the 24 at 18:00 UTC


231100Z 2312/2418 21010KT 9999 BKN020
PROB40
TEMPO 2312/2313 4000 SHRA BKN020 SCT030CB
PROB40
TEMPO 2313/2318 4000 TSRA BKN030CB
PROB30
TEMPO 2402/2406 4000 BR
PROB40
TEMPO 2415/2418 4000 SHRA SCT030CB
ATIS : +33 3 20 16 19 54



MET'MAP, your aeronautical weather chart ! - Copyright ORBIFLY December 2007 - Disclaimer

ORBIFLY MET'MAP TEAM :

Programming & Development : Alexandra Zaïnal
Original concept : Baudouin d'Aumeries
Technical & hardware support : Manuel Goepfert
Assistance : Marc-Olivier Méhu




SOURCES & CREDITS :

   NOAA